Terminal Aerodrome Forecast
Issued by NWS Greer, SC

Home | Current Version | Previous Version | Text Only | Print | Product List | Glossary On
Versions: 1 2 3 4 5 6 7 8 9 10 11 12 13 14 15 16 17 18 19 20 21 22 23 24
000
FTUS42 KGSP 302138 AAA
TAFCLT
TAF AMD
KCLT 302138Z 3022/3118 01008G15KT P6SM SCT035 BKN060
     FM302300 05006KT P6SM BKN250
     FM310800 02003KT P6SM SCT008 BKN020
     FM311000 02004KT P6SM BKN008 OVC020
     FM311400 04006KT P6SM SCT015 BKN035=

USA.gov is the U.S. government's official web portal to all federal, state and local government web resources and services.